Weather at F. D. Roosevelt Airport

Public forecast

Using degrees Celsius for public forecast. Weather courtesy of forecast.io.

Current aviation weather report (METAR) for F. D. Roosevelt Airport

Retrieved 2021/04/11 06:55 UTC (24 minutes ago):

TNCE 110655Z AUTO 05011KT //// // ///////// 24/17 Q1012 RE//

Closest aviation forecast (TAF) to F. D. Roosevelt Airport

Closest forecast is Robert L. Bradshaw International Airport, 18.6 nm (34.5 km) SE. Retrieved 2021/04/11 06:26 UTC (53 minutes ago):

TAF TKPK 110520Z 1106/1206 05010KT P6SM FEW022 AMD NOT SKED TIL 111100